Time;durP1;ratioP1;P1;durP2;ratioP2;P2;SDS_P1;SDS_P2;PMS_P1;PMS_P2;Temp;Humidity;BMP_temperature;BMP_pressure;BME280_temperature;BME280_humidity;BME280_pressure;Samples;Min_cycle;Max_cycle;Signal;HPM_P1;HPM_P2
2021/12/10 00:00:26;;;;;;;1.80;1.70;;;;;;;2.92;100.00;99115.00;5073675;28;20695;-76
2021/12/10 00:02:53;;;;;;;2.97;1.97;;;;;;;2.95;100.00;99122.50;5073718;28;20594;-76
2021/12/10 00:05:23;;;;;;;2.23;1.97;;;;;;;2.86;100.00;99109.97;5072142;28;20309;-76
2021/12/10 00:07:50;;;;;;;2.97;2.77;;;;;;;2.91;100.00;99115.31;5073627;28;20170;-76
2021/12/10 00:10:24;;;;;;;2.93;2.23;;;;;;;2.95;100.00;99106.31;5073544;28;20182;-76
2021/12/10 00:12:51;;;;;;;2.83;2.63;;;;;;;3.02;100.00;99110.53;5073678;28;20173;-76
2021/12/10 00:15:29;;;;;;;4.10;2.27;;;;;;;2.91;100.00;99110.72;5073626;28;20336;-76
2021/12/10 00:17:57;;;;;;;1.43;1.33;;;;;;;2.98;100.00;99113.81;5073400;28;20170;-76
2021/12/10 00:20:26;;;;;;;2.37;2.23;;;;;;;2.85;100.00;99100.28;5073734;28;20622;-76
2021/12/10 00:22:58;;;;;;;2.33;2.13;;;;;;;2.89;100.00;99094.03;5073217;28;20174;-76
2021/12/10 00:25:34;;;;;;;2.57;2.37;;;;;;;2.89;100.00;99093.19;5071659;28;20301;-76
2021/12/10 00:28:13;;;;;;;3.90;2.80;;;;;;;2.93;100.00;99088.84;5073287;28;20170;-76
2021/12/10 00:30:48;;;;;;;1.77;1.60;;;;;;;2.99;100.00;99091.16;5073186;28;20166;-76
2021/12/10 00:33:20;;;;;;;4.23;2.30;;;;;;;2.99;100.00;99085.75;5072819;28;20189;-76
2021/12/10 00:35:46;;;;;;;2.73;2.17;;;;;;;3.05;100.00;99086.47;5072841;28;20704;-76
2021/12/10 00:38:12;;;;;;;3.20;2.07;;;;;;;2.99;100.00;99080.34;5073048;28;20167;-76
2021/12/10 00:40:39;;;;;;;5.47;2.20;;;;;;;2.98;100.00;99081.44;5073014;28;20182;-76
2021/12/10 00:43:04;;;;;;;3.60;2.23;;;;;;;2.99;100.00;99068.75;5073342;28;20224;-76
2021/12/10 00:45:30;;;;;;;2.97;2.37;;;;;;;2.88;100.00;99060.03;5072801;28;20202;-76
2021/12/10 00:47:57;;;;;;;2.43;2.20;;;;;;;3.02;100.00;99067.38;5072907;28;20253;-76
2021/12/10 00:50:27;;;;;;;2.50;2.23;;;;;;;3.05;100.00;99062.19;5072824;28;20178;-76
2021/12/10 00:52:53;;;;;;;3.20;2.90;;;;;;;3.06;100.00;99052.22;5072783;28;20175;-76
2021/12/10 00:55:20;;;;;;;2.63;2.40;;;;;;;3.07;100.00;99051.09;5072593;28;20182;-76
2021/12/10 00:57:46;;;;;;;4.13;2.60;;;;;;;2.90;100.00;99047.06;5072646;28;20236;-76
2021/12/10 01:00:17;;;;;;;4.00;2.03;;;;;;;3.02;100.00;99056.56;5072602;28;20178;-75
2021/12/10 01:02:43;;;;;;;2.30;1.77;;;;;;;3.00;100.00;99054.16;5072588;28;20170;-76
2021/12/10 01:05:11;;;;;;;3.13;2.60;;;;;;;2.97;100.00;99052.88;5072368;28;20210;-76
2021/12/10 01:07:38;;;;;;;3.77;2.40;;;;;;;2.95;100.00;99046.19;5072514;28;20538;-76
2021/12/10 01:10:12;;;;;;;3.87;2.83;;;;;;;2.84;100.00;99037.44;5071248;28;20208;-76
2021/12/10 01:12:43;;;;;;;2.67;2.47;;;;;;;2.78;100.00;99035.13;5072172;28;20187;-76
2021/12/10 01:28:48;;;;;;;3.63;3.13;;;;;;;3.04;100.00;99003.94;5072085;28;20232;-76
2021/12/10 01:31:14;;;;;;;3.57;3.27;;;;;;;3.06;100.00;98996.34;5072331;28;20255;-76
2021/12/10 01:33:43;;;;;;;3.73;2.87;;;;;;;2.85;100.00;98987.00;5071753;28;20171;-76
2021/12/10 01:36:09;;;;;;;4.20;2.70;;;;;;;2.81;100.00;98983.31;5071710;28;20178;-76
2021/12/10 01:38:37;;;;;;;6.13;2.90;;;;;;;2.62;100.00;98975.28;5071831;28;20189;-76
2021/12/10 01:41:08;;;;;;;3.77;2.90;;;;;;;2.76;100.00;98980.72;5071841;28;20178;-76
2021/12/10 01:43:36;;;;;;;3.03;2.27;;;;;;;2.76;100.00;98980.72;5071584;28;20234;-76
2021/12/10 01:46:07;;;;;;;3.33;2.40;;;;;;;2.85;100.00;98985.09;5071609;28;20170;-76
2021/12/10 01:48:40;;;;;;;3.23;2.20;;;;;;;2.69;100.00;98972.97;5071739;28;20264;-76
2021/12/10 01:51:09;;;;;;;3.13;2.83;;;;;;;2.84;100.00;98972.72;5071678;28;20214;-76
2021/12/10 01:53:37;;;;;;;2.77;2.47;;;;;;;2.66;100.00;98970.88;5071432;28;20177;-76
2021/12/10 01:56:10;;;;;;;4.03;3.23;;;;;;;2.92;100.00;98969.34;5071108;28;20183;-76
2021/12/10 01:58:37;;;;;;;5.13;2.83;;;;;;;2.83;100.00;98956.84;5071425;28;20178;-76
2021/12/10 02:01:13;;;;;;;5.10;2.77;;;;;;;2.70;100.00;98950.31;5071445;28;20173;-76
2021/12/10 02:03:39;;;;;;;2.77;2.47;;;;;;;2.71;100.00;98957.31;5069159;28;20209;-76
2021/12/10 02:06:07;;;;;;;3.13;2.80;;;;;;;2.79;100.00;98947.75;5068338;28;20229;-76
2021/12/10 02:08:33;;;;;;;3.43;2.53;;;;;;;2.82;100.00;98949.84;5071005;28;20187;-76
2021/12/10 02:10:59;;;;;;;3.73;2.90;;;;;;;2.58;100.00;98953.47;5071310;28;20182;-76
2021/12/10 02:13:25;;;;;;;3.37;2.77;;;;;;;2.62;100.00;98951.81;5071029;28;20232;-76
2021/12/10 02:15:50;;;;;;;3.33;2.30;;;;;;;2.68;100.00;98945.22;5071129;28;20166;-76
2021/12/10 02:18:16;;;;;;;7.23;3.37;;;;;;;2.59;100.00;98941.59;5071213;28;20656;-76
2021/12/10 02:21:03;;;;;;;2.77;2.57;;;;;;;2.68;100.00;98941.72;5070802;28;20163;-76
2021/12/10 02:23:32;;;;;;;3.57;2.60;;;;;;;2.71;100.00;98934.94;5071055;28;20163;-76
2021/12/10 02:25:58;;;;;;;3.33;3.03;;;;;;;2.64;100.00;98924.56;5070968;28;20195;-76
2021/12/10 02:28:24;;;;;;;4.10;2.97;;;;;;;2.54;100.00;98924.72;5071095;28;20190;-76
2021/12/10 02:30:49;;;;;;;2.33;2.03;;;;;;;2.71;100.00;98916.84;5071065;28;20185;-76
2021/12/10 02:33:16;;;;;;;1.33;1.23;;;;;;;2.72;100.00;98921.16;5070626;28;20202;-76
2021/12/10 02:35:42;;;;;;;3.37;3.07;;;;;;;2.71;100.00;98916.84;5070680;28;20261;-76
2021/12/10 02:38:08;;;;;;;3.00;2.17;;;;;;;2.67;100.00;98910.47;5070674;28;20726;-76
2021/12/10 02:40:35;;;;;;;1.57;1.47;;;;;;;2.66;100.00;98909.66;5070762;28;20339;-76
2021/12/10 02:43:06;;;;;;;4.33;1.77;;;;;;;2.66;100.00;98906.97;5070780;28;20180;-76
2021/12/10 02:45:32;;;;;;;5.00;3.03;;;;;;;2.73;100.00;98903.88;5070381;28;20213;-77
2021/12/10 02:47:58;;;;;;;0.70;0.70;;;;;;;2.77;100.00;98904.91;5070780;28;20174;-76
2021/12/10 02:50:26;;;;;;;2.70;2.47;;;;;;;2.79;100.00;98896.50;5070865;28;20265;-76
2021/12/10 02:52:52;;;;;;;3.33;3.00;;;;;;;2.77;100.00;98896.81;5070784;28;20265;-76
2021/12/10 02:55:19;;;;;;;3.27;2.87;;;;;;;2.76;100.00;98889.81;5070392;28;20499;-76
2021/12/10 02:57:47;;;;;;;3.03;2.70;;;;;;;2.74;100.00;98900.09;5070431;28;20653;-76
2021/12/10 03:00:16;;;;;;;3.53;2.50;;;;;;;2.77;100.00;98893.31;5070513;28;20188;-76
2021/12/10 03:02:42;;;;;;;5.87;3.73;;;;;;;2.83;100.00;98889.41;5070432;28;20174;-76
2021/12/10 03:05:09;;;;;;;4.33;2.80;;;;;;;2.73;100.00;98889.59;5070161;28;20685;-76
2021/12/10 03:07:36;;;;;;;3.53;3.20;;;;;;;2.72;100.00;98891.50;5070670;28;20167;-76
2021/12/10 03:10:06;;;;;;;3.60;3.30;;;;;;;2.67;100.00;98891.59;5070478;28;20301;-76
2021/12/10 03:12:31;;;;;;;6.30;3.30;;;;;;;2.72;100.00;98888.78;5070417;28;20182;-76
2021/12/10 03:14:57;;;;;;;3.57;2.97;;;;;;;2.71;100.00;98889.09;5070457;28;20186;-76
2021/12/10 03:17:29;;;;;;;3.93;3.00;;;;;;;2.68;100.00;98885.09;5070689;28;20716;-76
2021/12/10 03:19:55;;;;;;;5.73;4.10;;;;;;;2.62;100.00;98879.03;5070656;28;20166;-76
2021/12/10 03:22:22;;;;;;;4.83;3.50;;;;;;;2.60;100.00;98878.53;5070452;28;20170;-75
2021/12/10 03:24:51;;;;;;;3.83;3.43;;;;;;;2.60;100.00;98869.59;5070348;28;20615;-76
2021/12/10 03:27:16;;;;;;;4.07;3.77;;;;;;;2.70;100.00;98877.50;5070614;28;20232;-76
2021/12/10 03:29:44;;;;;;;4.23;2.97;;;;;;;2.71;100.00;98873.72;5070520;28;20630;-76
2021/12/10 03:32:14;;;;;;;4.23;3.60;;;;;;;2.67;100.00;98878.13;5070954;28;20177;-76
2021/12/10 03:34:41;;;;;;;6.13;3.43;;;;;;;2.60;100.00;98867.75;5074017;28;20166;-76
2021/12/10 03:37:07;;;;;;;3.43;3.13;;;;;;;2.55;100.00;98858.91;5074203;28;20416;-76
2021/12/10 03:39:33;;;;;;;3.77;3.20;;;;;;;2.58;100.00;98875.28;5074575;28;20220;-76
2021/12/10 03:42:00;;;;;;;3.87;3.43;;;;;;;2.51;100.00;98874.91;5074323;28;20174;-76
2021/12/10 03:44:27;;;;;;;3.40;3.10;;;;;;;2.56;100.00;98874.78;5074515;28;20251;-76
2021/12/10 03:46:53;;;;;;;5.43;3.57;;;;;;;2.65;100.00;98874.91;5074012;28;20167;-75
2021/12/10 03:49:20;;;;;;;4.63;3.43;;;;;;;2.70;100.00;98864.03;5073078;28;20174;-76
2021/12/10 03:51:46;;;;;;;4.00;3.13;;;;;;;2.62;100.00;98867.44;5074234;28;20189;-76
2021/12/10 03:54:13;;;;;;;3.87;3.47;;;;;;;2.69;100.00;98859.75;5074131;28;20666;-76
2021/12/10 03:56:39;;;;;;;2.97;2.70;;;;;;;2.59;100.00;98855.31;5074122;28;20257;-76
2021/12/10 03:59:08;;;;;;;3.37;3.03;;;;;;;2.51;100.00;98855.22;5074583;28;20170;-76
2021/12/10 04:01:35;;;;;;;3.23;2.93;;;;;;;2.55;100.00;98846.25;5077158;28;20181;-76
2021/12/10 04:04:04;;;;;;;3.50;3.20;;;;;;;2.56;100.00;98849.75;5084034;28;20206;-77
2021/12/10 04:06:30;;;;;;;3.43;2.80;;;;;;;2.56;100.00;98842.44;5079345;28;20496;-76
2021/12/10 04:08:57;;;;;;;3.97;3.30;;;;;;;2.58;100.00;98839.47;5074594;28;20215;-76
2021/12/10 04:11:23;;;;;;;4.60;3.30;;;;;;;2.58;100.00;98837.56;5073665;28;20746;-76
2021/12/10 04:13:51;;;;;;;9.23;5.87;;;;;;;2.64;100.00;98833.69;5073296;28;20182;-76
2021/12/10 04:16:18;;;;;;;6.60;5.87;;;;;;;2.72;100.00;98834.06;5073351;28;20182;-77
2021/12/10 04:18:47;;;;;;;4.83;4.33;;;;;;;2.86;100.00;98846.47;5073282;28;20653;-76
2021/12/10 04:21:13;;;;;;;4.77;4.27;;;;;;;2.82;100.00;98837.38;5073300;28;20189;-77
2021/12/10 04:23:41;;;;;;;5.80;3.90;;;;;;;2.73;100.00;98827.59;5073224;28;20205;-76
2021/12/10 04:26:11;;;;;;;4.93;2.87;;;;;;;2.81;100.00;98835.78;5073188;28;20167;-76
2021/12/10 04:28:37;;;;;;;3.20;2.73;;;;;;;2.72;100.00;98799.81;5073253;28;20171;-76
2021/12/10 04:31:03;;;;;;;4.83;4.37;;;;;;;2.68;100.00;98823.09;5073082;28;20673;-76
2021/12/10 04:33:28;;;;;;;4.43;4.03;;;;;;;2.65;100.00;98821.81;5071591;28;20221;-76
2021/12/10 04:35:57;;;;;;;5.13;4.23;;;;;;;2.77;100.00;98815.91;5072791;28;20638;-76
2021/12/10 04:38:24;;;;;;;5.67;3.67;;;;;;;2.80;100.00;98828.00;5072944;28;20561;-76
2021/12/10 04:40:52;;;;;;;6.20;3.93;;;;;;;2.58;100.00;98810.59;5072800;28;20611;-76
2021/12/10 04:43:20;;;;;;;5.93;4.33;;;;;;;2.60;100.00;98824.59;5072650;28;20573;-76
2021/12/10 04:45:46;;;;;;;5.90;3.67;;;;;;;2.62;100.00;98821.59;5072685;28;20212;-76
2021/12/10 04:48:12;;;;;;;4.37;3.97;;;;;;;2.71;100.00;98819.00;5072793;28;20254;-76
2021/12/10 04:50:38;;;;;;;3.97;3.67;;;;;;;2.79;100.00;98818.31;5072843;28;20643;-76
2021/12/10 04:53:07;;;;;;;4.00;3.50;;;;;;;2.89;100.00;98818.91;5072654;28;20178;-76
2021/12/10 04:55:33;;;;;;;4.67;4.27;;;;;;;2.92;100.00;98809.41;5072518;28;20179;-76
2021/12/10 04:57:59;;;;;;;6.13;4.83;;;;;;;2.84;100.00;98810.91;5072586;28;20657;-76
2021/12/10 05:00:28;;;;;;;9.30;3.93;;;;;;;2.96;100.00;98813.09;5072787;28;20261;-76
2021/12/10 05:02:56;;;;;;;7.00;4.43;;;;;;;2.85;100.00;98804.41;5072661;28;20205;-76
2021/12/10 05:05:22;;;;;;;9.47;7.30;;;;;;;2.89;100.00;98810.81;5072251;28;20566;-76
2021/12/10 05:07:48;;;;;;;5.77;5.23;;;;;;;2.87;100.00;98802.22;5072389;28;20397;-76
2021/12/10 05:10:16;;;;;;;6.17;5.57;;;;;;;2.92;100.00;98796.72;5072168;28;20240;-76
2021/12/10 05:12:42;;;;;;;6.00;5.40;;;;;;;2.98;100.00;98792.81;5072382;28;20179;-76
2021/12/10 05:15:13;;;;;;;4.43;4.03;;;;;;;2.94;100.00;98794.53;5072139;28;20266;-76
2021/12/10 05:17:40;;;;;;;4.67;3.03;;;;;;;2.98;100.00;98798.22;5072518;28;20174;-76
2021/12/10 05:20:14;;;;;;;3.83;3.37;;;;;;;2.92;100.00;98780.53;5072144;28;20665;-76
2021/12/10 05:22:42;;;;;;;3.97;3.60;;;;;;;2.88;100.00;98787.63;5072090;28;20177;-76
2021/12/10 05:25:09;;;;;;;4.87;3.80;;;;;;;2.94;100.00;98770.25;5070532;28;20230;-76
2021/12/10 05:27:35;;;;;;;3.43;2.60;;;;;;;2.95;100.00;98771.84;5072042;28;20178;-76
2021/12/10 05:30:00;;;;;;;4.23;3.00;;;;;;;3.08;100.00;98774.81;5072032;28;20232;-76
2021/12/10 05:32:26;;;;;;;4.23;2.80;;;;;;;3.06;100.00;98771.63;5072012;28;20171;-76
2021/12/10 05:34:51;;;;;;;6.03;2.67;;;;;;;3.12;100.00;98765.81;5071448;28;20236;-76
2021/12/10 05:37:18;;;;;;;5.30;3.87;;;;;;;3.10;100.00;98765.31;5071823;28;20178;-76
2021/12/10 05:39:44;;;;;;;3.77;3.40;;;;;;;2.99;100.00;98763.94;5071620;28;20178;-76
2021/12/10 05:42:09;;;;;;;4.47;3.70;;;;;;;2.93;100.00;98749.78;5071794;28;20228;-76
2021/12/10 05:44:36;;;;;;;4.87;4.47;;;;;;;3.08;100.00;98759.44;5070236;28;20665;-77
2021/12/10 05:47:02;;;;;;;3.70;3.40;;;;;;;3.09;100.00;98752.94;5071466;28;20183;-76
2021/12/10 05:49:28;;;;;;;3.60;3.30;;;;;;;3.15;100.00;98757.09;5071430;28;20193;-76
2021/12/10 05:51:53;;;;;;;4.57;3.27;;;;;;;3.19;100.00;98750.03;5071579;28;20186;-77
2021/12/10 05:54:19;;;;;;;4.40;3.47;;;;;;;3.20;100.00;98756.22;5071496;28;20220;-76
2021/12/10 05:56:44;;;;;;;6.10;3.63;;;;;;;3.08;100.00;98750.53;5070835;28;20643;-76
2021/12/10 05:59:09;;;;;;;3.47;3.17;;;;;;;3.02;100.00;98747.13;5071363;28;20266;-76
2021/12/10 06:01:35;;;;;;;4.10;3.77;;;;;;;3.04;100.00;98744.13;5071491;28;20175;-76
2021/12/10 06:04:00;;;;;;;3.37;3.07;;;;;;;3.08;100.00;98737.84;5071133;28;20594;-76
2021/12/10 06:06:28;;;;;;;4.47;3.60;;;;;;;2.94;100.00;98721.69;5071083;28;20179;-76
2021/12/10 06:08:55;;;;;;;3.47;3.17;;;;;;;2.95;100.00;98723.28;5071122;28;20752;-76
2021/12/10 06:11:22;;;;;;;4.63;3.47;;;;;;;2.97;100.00;98733.78;5071223;28;20170;-76
2021/12/10 06:13:47;;;;;;;4.33;3.63;;;;;;;2.86;100.00;98721.59;5071126;28;20186;-76
2021/12/10 06:16:14;;;;;;;3.97;3.43;;;;;;;2.97;100.00;98731.88;5071392;28;20685;-76
2021/12/10 06:18:40;;;;;;;3.63;3.23;;;;;;;2.99;100.00;98724.28;5070956;28;20236;-76
2021/12/10 06:21:05;;;;;;;3.73;3.33;;;;;;;3.07;100.00;98717.38;5071087;28;20634;-76
2021/12/10 06:23:31;;;;;;;4.30;3.13;;;;;;;3.08;100.00;98721.66;5070872;28;20263;-76
2021/12/10 06:25:57;;;;;;;3.33;3.03;;;;;;;3.10;100.00;98718.66;5069388;28;20175;-77
2021/12/10 06:28:22;;;;;;;3.60;2.97;;;;;;;3.12;100.00;98711.84;5070998;28;20626;-76
2021/12/10 06:30:49;;;;;;;3.63;3.33;;;;;;;3.09;100.00;98707.06;5070958;28;20170;-76
2021/12/10 06:33:18;;;;;;;3.93;3.63;;;;;;;3.12;100.00;98713.75;5070575;28;20523;-76
2021/12/10 06:35:47;;;;;;;3.87;3.47;;;;;;;3.12;100.00;98717.25;5069398;28;20276;-76
2021/12/10 06:38:13;;;;;;;4.43;3.30;;;;;;;3.19;100.00;98716.84;5070862;28;20187;-76
2021/12/10 06:40:41;;;;;;;4.37;2.97;;;;;;;3.23;100.00;98718.63;5070798;28;20185;-76
2021/12/10 06:43:07;;;;;;;4.63;3.40;;;;;;;3.14;100.00;98711.53;5070638;28;20175;-76
2021/12/10 06:45:35;;;;;;;3.60;3.30;;;;;;;3.05;100.00;98716.88;5070835;28;20216;-76
2021/12/10 06:48:03;;;;;;;3.40;2.83;;;;;;;3.07;100.00;98711.19;5070908;28;20283;-76
2021/12/10 06:50:33;;;;;;;4.67;3.63;;;;;;;3.08;100.00;98713.56;5070526;28;20185;-76
2021/12/10 06:52:59;;;;;;;8.00;4.10;;;;;;;3.12;100.00;98716.44;5070640;28;20167;-76
2021/12/10 06:55:26;;;;;;;5.23;4.07;;;;;;;3.09;100.00;98712.47;5070442;28;20185;-76
2021/12/10 06:57:51;;;;;;;4.60;3.57;;;;;;;3.04;100.00;98714.47;5070424;28;20759;-76
2021/12/10 07:00:28;;;;;;;3.77;3.47;;;;;;;3.05;100.00;98716.09;5070613;28;20185;-77
2021/12/10 07:02:53;;;;;;;4.23;3.57;;;;;;;3.20;100.00;98719.22;5070595;28;20552;-76
2021/12/10 07:05:19;;;;;;;5.77;3.57;;;;;;;3.02;100.00;98705.88;5070451;28;20202;-77
2021/12/10 07:07:45;;;;;;;3.57;3.27;;;;;;;3.01;100.00;98713.19;5072105;28;20621;-76
2021/12/10 07:10:13;;;;;;;3.67;3.30;;;;;;;3.05;100.00;98708.78;5074622;28;20190;-76
2021/12/10 07:12:40;;;;;;;5.03;3.60;;;;;;;3.16;100.00;98712.03;5074659;28;20717;-76
2021/12/10 07:15:09;;;;;;;5.03;3.83;;;;;;;2.98;100.00;98701.09;5074317;28;20182;-77
2021/12/10 07:17:38;;;;;;;5.40;3.03;;;;;;;3.06;100.00;98712.28;5074775;28;20171;-76
2021/12/10 07:20:06;;;;;;;4.40;3.63;;;;;;;3.00;100.00;98708.88;5074531;28;20179;-76
2021/12/10 07:22:32;;;;;;;6.43;3.97;;;;;;;2.99;100.00;98697.31;5073066;28;20579;-77
2021/12/10 07:24:57;;;;;;;4.33;3.90;;;;;;;3.08;100.00;98702.78;5074066;28;20198;-76
2021/12/10 07:27:23;;;;;;;4.33;3.57;;;;;;;3.11;100.00;98701.38;5074321;28;20235;-76
2021/12/10 07:29:48;;;;;;;4.47;3.70;;;;;;;3.18;100.00;98707.13;5074418;28;20175;-76
2021/12/10 07:32:13;;;;;;;3.77;3.37;;;;;;;3.22;100.00;98697.34;5074250;28;20634;-76
2021/12/10 07:34:40;;;;;;;3.73;3.40;;;;;;;3.27;100.00;98705.31;5073975;28;20228;-78
2021/12/10 07:37:07;;;;;;;3.67;3.17;;;;;;;3.12;100.00;98695.66;5073965;28;20166;-76
2021/12/10 07:39:33;;;;;;;6.07;3.13;;;;;;;3.12;100.00;98682.19;5074018;28;20179;-77
2021/12/10 07:42:00;;;;;;;4.17;3.10;;;;;;;3.05;100.00;98678.31;5074379;28;20235;-76
2021/12/10 07:44:26;;;;;;;5.07;3.50;;;;;;;3.07;100.00;98678.81;5073888;28;20194;-76
2021/12/10 07:46:51;;;;;;;4.00;3.60;;;;;;;2.94;100.00;98670.44;5072385;28;20193;-77
2021/12/10 07:49:23;;;;;;;3.60;3.30;;;;;;;3.03;100.00;98675.09;5073761;28;20680;-76
2021/12/10 07:51:50;;;;;;;4.03;3.33;;;;;;;3.03;100.00;98675.09;5073788;28;20178;-76
2021/12/10 07:54:16;;;;;;;4.53;3.97;;;;;;;3.04;100.00;98663.22;5073903;28;20179;-76
2021/12/10 07:56:41;;;;;;;5.00;3.10;;;;;;;2.92;100.00;98653.78;5068945;28;20182;-76
2021/12/10 07:59:06;;;;;;;3.53;3.23;;;;;;;2.84;100.00;98651.78;5073539;28;20249;-76
2021/12/10 08:01:33;;;;;;;5.63;3.70;;;;;;;2.77;100.00;98648.75;5073634;28;20221;-76
2021/12/10 08:04:00;;;;;;;6.40;4.07;;;;;;;2.79;100.00;98648.44;5072161;28;20583;-76
2021/12/10 08:06:30;;;;;;;2.83;2.53;;;;;;;2.89;100.00;98651.69;5073395;28;20171;-76
2021/12/10 08:08:55;;;;;;;5.63;3.87;;;;;;;3.07;100.00;98649.94;5072102;28;20517;-76
2021/12/10 08:11:22;;;;;;;3.70;3.03;;;;;;;3.12;100.00;98651.69;5073924;28;20169;-77
2021/12/10 08:13:48;;;;;;;3.30;2.80;;;;;;;3.10;100.00;98643.91;5073296;28;20163;-77
2021/12/10 08:16:15;;;;;;;5.47;3.67;;;;;;;2.95;100.00;98636.19;5073317;28;20178;-76
2021/12/10 08:18:41;;;;;;;2.90;2.67;;;;;;;3.11;100.00;98650.09;5073355;28;20284;-76
2021/12/10 08:21:06;;;;;;;3.40;3.00;;;;;;;3.15;100.00;98645.69;5073281;28;20182;-77
2021/12/10 08:23:34;;;;;;;3.47;3.13;;;;;;;2.99;100.00;98637.16;5073005;28;20170;-77
2021/12/10 08:25:59;;;;;;;4.40;3.93;;;;;;;3.07;100.00;98641.03;5072679;28;20179;-77
2021/12/10 08:28:26;;;;;;;5.40;3.07;;;;;;;3.02;100.00;98641.94;5073036;28;20208;-77
2021/12/10 08:30:54;;;;;;;3.90;3.30;;;;;;;2.88;100.00;98636.59;5072823;28;20170;-77
2021/12/10 08:33:20;;;;;;;3.37;3.07;;;;;;;2.82;100.00;98628.94;5072542;28;20171;-77
2021/12/10 08:35:50;;;;;;;3.17;2.87;;;;;;;2.78;100.00;98623.38;5073028;28;20186;-77
2021/12/10 08:38:15;;;;;;;5.07;2.83;;;;;;;2.79;100.00;98626.84;5072946;28;20224;-77
2021/12/10 08:40:55;;;;;;;4.17;3.37;;;;;;;2.76;100.00;98622.88;5072866;28;20593;-77
2021/12/10 08:43:21;;;;;;;2.93;2.63;;;;;;;2.74;100.00;98622.34;5072646;28;20174;-77
2021/12/10 08:45:46;;;;;;;3.90;3.50;;;;;;;2.64;100.00;98617.22;5072348;28;20198;-77
2021/12/10 08:48:12;;;;;;;2.50;2.30;;;;;;;2.63;100.00;98619.13;5072694;28;20224;-77
2021/12/10 08:50:40;;;;;;;2.37;2.17;;;;;;;2.58;100.00;98610.31;5072602;28;20588;-76
2021/12/10 08:53:12;;;;;;;3.97;3.13;;;;;;;2.59;100.00;98615.41;5072569;28;20170;-77
2021/12/10 08:55:37;;;;;;;2.77;2.40;;;;;;;2.58;100.00;98610.31;5072187;28;20174;-77
2021/12/10 08:58:04;;;;;;;3.37;2.67;;;;;;;2.55;100.00;98608.25;5072445;28;20547;-76
2021/12/10 09:00:30;;;;;;;3.47;2.80;;;;;;;2.53;100.00;98619.34;5072596;28;20656;-77
2021/12/10 09:02:57;;;;;;;2.70;2.43;;;;;;;2.59;100.00;98617.31;5072351;28;20588;-77
2021/12/10 09:05:25;;;;;;;3.23;2.70;;;;;;;2.62;100.00;98627.50;5072019;28;20202;-77
2021/12/10 09:07:50;;;;;;;2.87;2.43;;;;;;;2.60;100.00;98622.44;5072195;28;20520;-77
2021/12/10 09:10:23;;;;;;;2.60;2.40;;;;;;;2.62;100.00;98622.13;5072101;28;20240;-77
2021/12/10 09:12:50;;;;;;;6.37;3.20;;;;;;;2.54;100.00;98620.13;5072276;28;20269;-77
2021/12/10 09:15:20;;;;;;;3.50;3.20;;;;;;;2.55;100.00;98610.94;5072064;28;20236;-76
2021/12/10 09:17:47;;;;;;;3.70;2.80;;;;;;;2.62;100.00;98617.53;5072162;28;20173;-77
2021/12/10 09:20:22;;;;;;;4.40;3.80;;;;;;;2.56;100.00;98607.94;5072054;28;20175;-77
2021/12/10 09:22:48;;;;;;;6.40;3.53;;;;;;;2.57;100.00;98603.34;5071871;28;20273;-77
2021/12/10 09:25:14;;;;;;;3.53;3.13;;;;;;;2.59;100.00;98603.84;5071866;28;20302;-77
2021/12/10 09:27:40;;;;;;;3.27;2.77;;;;;;;2.57;100.00;98617.63;5068450;28;20183;-77
2021/12/10 09:30:08;;;;;;;3.43;2.63;;;;;;;2.59;100.00;98607.31;5071110;28;20572;-77
2021/12/10 09:32:34;;;;;;;4.43;2.57;;;;;;;2.64;100.00;98609.13;5071311;28;20256;-76
2021/12/10 09:35:03;;;;;;;3.93;3.20;;;;;;;2.63;100.00;98607.53;5071100;28;20179;-77
2021/12/10 09:37:29;;;;;;;3.73;3.30;;;;;;;2.65;100.00;98616.13;5071212;28;20183;-77
2021/12/10 09:39:54;;;;;;;4.83;2.73;;;;;;;2.73;100.00;98611.88;5071555;28;20175;-77
2021/12/10 09:42:22;;;;;;;3.70;2.37;;;;;;;2.81;100.00;98608.47;5069791;28;20277;-78
2021/12/10 09:44:54;;;;;;;4.87;3.07;;;;;;;2.82;100.00;98607.38;5067758;28;20257;-77
2021/12/10 09:47:21;;;;;;;2.50;2.00;;;;;;;2.83;100.00;98601.66;5070251;28;20189;-78
2021/12/10 09:49:50;;;;;;;3.70;3.40;;;;;;;2.83;100.00;98609.75;5069928;28;20638;-77
2021/12/10 09:52:18;;;;;;;5.97;5.00;;;;;;;2.84;100.00;98605.94;5070456;28;20642;-77
2021/12/10 09:54:44;;;;;;;4.50;3.20;;;;;;;2.87;100.00;98604.53;5070008;28;20178;-78
2021/12/10 09:57:17;;;;;;;4.07;3.47;;;;;;;2.85;100.00;98601.34;5070498;28;20181;-78
2021/12/10 09:59:45;;;;;;;5.47;3.10;;;;;;;2.93;100.00;98601.44;5067950;28;20549;-77
2021/12/10 10:02:12;;;;;;;3.40;3.10;;;;;;;3.03;100.00;98602.28;5069493;28;20225;-78
2021/12/10 10:04:43;;;;;;;4.67;3.67;;;;;;;2.98;100.00;98593.22;5069746;28;20500;-78
2021/12/10 10:07:13;;;;;;;3.70;3.20;;;;;;;3.01;100.00;98594.50;5071449;28;20182;-77
2021/12/10 10:09:40;;;;;;;2.77;2.40;;;;;;;3.04;100.00;98595.78;5071100;28;20190;-78
2021/12/10 10:12:12;;;;;;;5.13;3.63;;;;;;;3.11;100.00;98593.44;5071201;28;20653;-77
2021/12/10 10:14:39;;;;;;;2.83;2.50;;;;;;;3.19;100.00;98579.22;5070967;28;20166;-78
2021/12/10 10:17:06;;;;;;;3.27;2.97;;;;;;;3.23;100.00;98580.19;5070946;28;20174;-77
2021/12/10 10:19:32;;;;;;;6.93;3.90;;;;;;;3.27;100.00;98578.47;5071103;28;20167;-77
2021/12/10 10:21:59;;;;;;;8.60;6.73;;;;;;;3.29;100.00;98585.16;5070964;28;20178;-77
2021/12/10 10:24:27;;;;;;;9.17;6.73;;;;;;;3.37;100.00;98583.63;5071027;28;20206;-78
2021/12/10 10:27:19;;;;;;;4.47;3.87;;;;;;;3.56;100.00;98584.19;5070682;28;20175;-77
2021/12/10 10:29:54;;;;;;;5.10;3.10;;;;;;;3.53;100.00;98576.69;5071121;28;20201;-77
2021/12/10 10:32:24;;;;;;;2.77;2.57;;;;;;;3.52;100.00;98572.41;5071033;28;20249;-77
2021/12/10 10:34:54;;;;;;;2.37;2.17;;;;;;;3.49;100.00;98567.63;5070786;28;20175;-77
2021/12/10 10:37:20;;;;;;;3.27;2.97;;;;;;;3.52;100.00;98567.00;5070983;28;20175;-77
2021/12/10 10:39:47;;;;;;;3.77;2.77;;;;;;;3.54;99.60;98564.00;5071127;28;20201;-77
2021/12/10 10:42:24;;;;;;;3.00;2.70;;;;;;;3.65;99.69;98565.31;5070923;28;20174;-77
2021/12/10 10:44:50;;;;;;;3.73;2.60;;;;;;;3.75;100.00;98565.03;5070898;28;20247;-77
2021/12/10 10:47:20;;;;;;;2.83;2.30;;;;;;;3.87;98.28;98564.44;5075976;28;20691;-77
2021/12/10 10:50:11;;;;;;;1.83;1.70;;;;;;;4.03;96.95;98565.59;5075671;28;20170;-78
2021/12/10 10:52:40;;;;;;;2.20;2.00;;;;;;;4.17;94.65;98566.25;5071706;28;20174;-77
2021/12/10 10:55:11;;;;;;;2.63;1.80;;;;;;;3.94;91.68;98556.69;5069414;28;20763;-78
2021/12/10 10:57:40;;;;;;;2.63;1.93;;;;;;;3.96;91.44;98561.75;5071381;28;20515;-78
2021/12/10 11:00:46;;;;;;;2.10;1.57;;;;;;;3.89;91.20;98556.81;5070897;28;20254;-77
2021/12/10 11:03:16;;;;;;;5.83;2.03;;;;;;;4.10;91.52;98557.81;5070793;28;20166;-77
2021/12/10 11:05:51;;;;;;;1.90;1.70;;;;;;;4.13;90.17;98556.41;5070336;28;20568;-77
2021/12/10 11:08:29;;;;;;;1.47;1.33;;;;;;;4.15;88.57;98549.56;5070465;28;20224;-77
2021/12/10 11:10:58;;;;;;;1.60;1.50;;;;;;;4.09;86.54;98555.44;5070552;28;20201;-77
2021/12/10 11:13:25;;;;;;;0.43;0.40;;;;;;;4.12;86.07;98554.81;5070297;28;20630;-77
2021/12/10 11:15:59;;;;;;;1.53;0.97;;;;;;;4.00;84.69;98547.31;5070061;28;20175;-77
2021/12/10 11:18:25;;;;;;;0.90;0.90;;;;;;;4.06;84.22;98551.47;5070387;28;20657;-77
2021/12/10 11:20:50;;;;;;;1.10;0.73;;;;;;;4.11;83.22;98562.13;5070552;28;20236;-77
2021/12/10 11:23:24;;;;;;;1.07;0.97;;;;;;;4.09;82.54;98547.34;5070140;28;20178;-77
2021/12/10 11:25:55;;;;;;;2.00;0.87;;;;;;;4.04;82.42;98553.66;5069771;28;20268;-77
2021/12/10 11:28:26;;;;;;;0.50;0.50;;;;;;;3.98;82.01;98554.94;5070328;28;20171;-77
2021/12/10 11:31:16;;;;;;;0.33;0.33;;;;;;;4.05;82.09;98555.28;5070113;28;20186;-77
2021/12/10 11:33:49;;;;;;;0.53;0.53;;;;;;;4.06;82.80;98558.78;5061950;28;20294;-77
2021/12/10 11:36:26;;;;;;;2.00;0.90;;;;;;;3.99;83.16;98564.63;5069969;28;20170;-77
2021/12/10 11:38:56;;;;;;;1.17;1.00;;;;;;;3.98;83.03;98556.84;5070079;28;20265;-77
2021/12/10 11:41:26;;;;;;;0.17;0.17;;;;;;;4.08;82.18;98561.97;5070091;28;20204;-77
2021/12/10 11:47:02;;;;;;;1.23;1.13;;;;;;;3.95;82.06;98560.19;5069929;28;20178;-78
2021/12/10 11:49:35;;;;;;;1.67;1.17;;;;;;;4.04;82.15;98564.47;5069928;28;20179;-77
2021/12/10 11:52:09;;;;;;;2.20;1.67;;;;;;;4.03;81.65;98568.28;5069895;28;20218;-78
2021/12/10 11:54:40;;;;;;;0.83;0.83;;;;;;;4.06;80.73;98569.59;5071018;28;20174;-78